Latest Weather Observations for Bickley

IDW60901

Issued at 6:21 pm WST Sunday 10 May 2026 (issued every 10 minutes, with the page automatically refreshed every 10 minutes)

About weather observations | Map of Perth area stations | Latest observations for Perth area | Other Formats
Station Details ID: 009240 Name: BICKLEY Lat: -32.01 Lon: 116.14 Height: 384.0 m
Data from the previous 72 hours. | See also: Recent months at Bickley
Date/Time
WST
Temp
°C
App
Temp
°C
Dew
Point
°C
Rel
Hum
%
Delta-T
°C
Wind Press
QNH
hPa
Press
MSL
hPa
Rain since
9am
mm
Dir  Spd
km/h
Gust
km/h
Spd
kts
Gust
kts
10/06:00pm 15.9 11.8 4.3 46 5.5 NE 15 22 8 12 - - 0.0
10/05:30pm 16.9 13.2 4.6 44 5.9 NE 13 24 7 13 - - 0.0
10/05:00pm 18.7 15.4 4.8 40 6.8 NE 11 22 6 12 - - 0.0
10/04:30pm 20.4 17.1 4.8 36 7.8 NE 11 20 6 11 - - 0.0
10/04:00pm 20.9 17.0 5.3 36 7.9 NNE 15 26 8 14 - - 0.0
10/03:30pm 21.4 18.6 5.3 35 8.1 NE 9 15 5 8 - - 0.0
10/03:00pm 21.1 17.6 5.5 36 7.9 NE 13 22 7 12 - - 0.0
10/02:30pm 20.9 17.2 6.1 38 7.6 NE 15 26 8 14 - - 0.0
10/02:00pm 20.5 17.4 5.7 38 7.5 NE 11 24 6 13 - - 0.0
10/01:30pm 20.5 16.8 6.1 39 7.3 NE 15 28 8 15 - - 0.0
10/01:00pm 19.7 16.2 5.4 39 7.2 NE 13 22 7 12 - - 0.0
10/12:30pm 19.5 16.0 5.6 40 7.0 NNE 13 28 7 15 - - 0.0
10/12:00pm 19.1 15.3 5.9 42 6.6 NE 15 26 8 14 - - 0.0
10/11:30am 19.0 14.9 6.2 43 6.5 NNE 17 26 9 14 - - 0.0
10/11:00am 18.6 14.4 7.4 48 5.8 NE 19 30 10 16 - - 0.0
10/10:30am 17.7 13.9 7.4 51 5.3 NE 17 28 9 15 - - 0.0
10/10:00am 16.1 12.1 6.5 53 4.8 NNE 17 28 9 15 - - 0.0
10/09:30am 14.6 11.1 7.2 61 3.7 NE 15 26 8 14 - - 0.0
10/09:00am 13.2 9.5 6.5 64 3.3 NE 15 28 8 15 - - 0.0
10/08:30am 10.8 7.0 5.8 71 2.4 NE 15 24 8 13 - - 0.0
10/08:00am 9.8 5.6 5.6 75 2.0 NE 17 26 9 14 - - 0.0
10/07:30am 8.7 4.0 5.1 78 1.6 ENE 19 26 10 14 - - 0.0
10/07:00am 8.4 3.4 4.6 77 1.7 ENE 20 26 11 14 - - 0.0
10/06:30am 8.5 3.7 4.7 77 1.7 ENE 19 24 10 13 - - 0.0
10/06:00am 8.9 3.9 4.7 75 1.9 ENE 20 26 11 14 - - 0.0
10/05:30am 8.9 3.9 4.5 74 2.0 ENE 20 28 11 15 - - 0.0
10/05:00am 9.2 4.4 4.6 73 2.1 ENE 19 26 10 14 - - 0.0
10/04:30am 9.6 4.6 4.6 71 2.3 ENE 20 30 11 16 - - 0.0
10/04:00am 9.7 4.3 4.5 70 2.4 ENE 22 30 12 16 - - 0.0
10/03:30am 9.9 4.5 4.5 69 2.5 ENE 22 30 12 16 - - 0.0
10/03:00am 10.4 5.3 4.3 66 2.8 ENE 20 30 11 16 - - 0.0
10/02:30am 10.6 5.1 4.1 64 3.0 ENE 22 32 12 17 - - 0.0
10/02:00am 10.7 5.6 4.0 63 3.0 ENE 20 28 11 15 - - 0.0
10/01:30am 11.2 5.6 3.7 60 3.4 ENE 22 32 12 17 - - 0.0
10/01:00am 11.1 5.5 3.6 60 3.4 ENE 22 32 12 17 - - 0.0
10/12:30am 11.3 6.1 3.6 59 3.5 NE 20 30 11 16 - - 0.0
10/12:00am 11.6 6.0 3.6 58 3.6 ENE 22 32 12 17 - - 0.0
 
Date/Time
WST
Temp
°C
App
Temp
°C
Dew
Point
°C
Rel
Hum
%
Delta-T
°C
Wind Press
QNH
hPa
Press
MSL
hPa
Rain since
9am
mm
Dir  Spd
km/h
Gust
km/h
Spd
kts
Gust
kts
09/11:30pm 11.3 6.1 3.3 58 3.6 ENE 20 30 11 16 - - 0.0
09/11:00pm 11.3 6.2 3.3 58 3.6 ENE 19 26 10 14 - - 0.0
09/10:30pm 11.6 6.6 3.4 57 3.7 ENE 19 28 10 15 - - 0.0
09/10:00pm 11.7 7.0 3.2 56 3.8 ENE 17 24 9 13 - - 0.0
09/09:30pm 12.3 7.2 3.0 53 4.2 ENE 19 26 10 14 - - 0.0
09/09:00pm 12.7 7.6 2.8 51 4.5 ENE 19 26 10 14 - - 0.0
09/08:30pm 12.8 7.4 2.6 50 4.6 ENE 20 32 11 17 - - 0.0
09/08:00pm 13.3 7.9 2.5 48 4.8 ENE 20 28 11 15 - - 0.0
09/07:30pm 13.4 8.3 2.9 49 4.8 ENE 19 24 10 13 - - 0.0
09/07:00pm 13.6 8.9 3.1 49 4.8 ENE 17 24 9 13 - - 0.0
09/06:30pm 14.1 9.8 3.0 47 5.1 E 15 17 8 9 - - 0.0
09/06:00pm 14.1 10.4 4.4 52 4.6 ENE 13 17 7 9 - - 0.0
09/05:30pm 15.4 12.1 4.5 48 5.2 ENE 11 15 6 8 - - 0.0
09/05:00pm 17.7 14.9 5.3 44 6.1 ENE 9 13 5 7 - - 0.0
09/04:30pm 19.0 15.1 3.6 36 7.4 ENE 13 26 7 14 - - 0.0
09/04:00pm 19.9 16.1 4.0 35 7.8 ENE 13 24 7 13 - - 0.0
09/03:30pm 20.0 16.6 4.1 35 7.8 ENE 11 26 6 14 - - 0.0
09/03:00pm 19.9 15.1 4.8 37 7.5 ENE 19 28 10 15 - - 0.0
09/02:30pm 20.0 14.8 3.7 34 7.9 ENE 20 39 11 21 - - 0.0
09/02:00pm 20.1 15.7 5.0 37 7.5 ENE 17 32 9 17 - - 0.0
09/01:30pm 19.3 15.0 5.4 40 6.9 ENE 17 32 9 17 - - 0.0
09/01:00pm 19.8 15.3 6.2 41 6.9 NE 19 28 10 15 - - 0.0
09/12:30pm 19.0 14.7 6.8 45 6.2 NE 19 32 10 17 - - 0.0
09/12:00pm 17.9 13.6 5.2 43 6.3 NE 17 30 9 16 - - 0.0
09/11:30am 17.6 13.6 6.5 48 5.6 ENE 17 28 9 15 - - 0.0
09/11:00am 17.2 12.7 7.0 51 5.2 NE 20 30 11 16 - - 0.0
09/10:30am 15.8 11.4 6.5 54 4.6 ENE 19 30 10 16 - - 0.0
09/10:00am 15.1 10.7 6.4 56 4.3 ENE 19 32 10 17 - - 0.0
09/09:30am 13.6 8.2 6.2 61 3.6 NE 24 39 13 21 - - 0.0
09/09:00am 12.2 7.4 5.6 64 3.1 NE 20 39 11 21 - - 0.0
09/08:30am 10.6 5.0 5.2 69 2.5 NE 24 39 13 21 - - 0.0
09/08:00am 9.8 4.9 5.0 72 2.2 NE 20 33 11 18 - - 0.0
09/07:30am 9.2 4.8 4.6 73 2.1 NE 17 28 9 15 - - 0.0
09/07:00am 9.3 4.5 4.5 72 2.2 NE 19 35 10 19 - - 0.0
09/06:30am 9.9 4.5 4.5 69 2.5 NE 22 39 12 21 - - 0.0
09/06:00am 10.1 3.6 4.5 68 2.6 NE 28 50 15 27 - - 0.0
09/05:30am 10.4 3.9 4.5 67 2.7 NE 28 50 15 27 - - 0.0
09/05:00am 10.7 4.2 4.6 66 2.8 NE 28 48 15 26 - - 0.0
09/04:31am 11.0 4.5 4.5 64 3.0 NE 28 46 15 25 - - 0.0
09/04:30am 11.0 4.5 4.5 64 3.0 NE 28 43 15 23 - - 0.0
09/04:00am 11.3 4.0 4.5 63 3.1 NE 32 54 17 29 - - 0.0
09/03:47am 11.4 4.5 4.6 63 3.1 NE 30 48 16 26 - - 0.0
09/03:30am 11.3 4.8 4.5 63 3.1 NE 28 43 15 23 - - 0.0
09/03:15am 11.3 4.8 4.5 63 3.1 NE 28 48 15 26 - - 0.0
09/03:00am 11.5 5.7 4.5 62 3.2 NE 24 39 13 21 - - 0.0
09/02:30am 11.5 5.3 4.5 62 3.2 ENE 26 41 14 22 - - 0.0
09/02:03am 11.8 5.3 4.5 61 3.4 ENE 28 48 15 26 - - 0.0
09/02:00am 11.7 5.5 4.4 61 3.4 ENE 26 48 14 26 - - 0.0
09/01:30am 12.0 6.6 4.5 60 3.5 ENE 22 35 12 19 - - 0.0
09/01:00am 12.4 6.6 4.4 58 3.7 ENE 24 41 13 22 - - 0.0
09/12:30am 12.5 6.3 4.5 58 3.7 ENE 26 39 14 21 - - 0.0
09/12:00am 12.6 6.4 4.3 57 3.9 ENE 26 44 14 24 - - 0.0
 
Date/Time
WST
Temp
°C
App
Temp
°C
Dew
Point
°C
Rel
Hum
%
Delta-T
°C
Wind Press
QNH
hPa
Press
MSL
hPa
Rain since
9am
mm
Dir  Spd
km/h
Gust
km/h
Spd
kts
Gust
kts
08/11:42pm 12.7 6.1 4.2 56 3.9 ENE 28 46 15 25 - - 0.0
08/11:30pm 12.7 6.1 4.2 56 3.9 ENE 28 41 15 22 - - 0.0
08/11:00pm 13.1 6.5 4.0 54 4.2 ENE 28 46 15 25 - - 0.0
08/10:55pm 13.1 6.5 4.0 54 4.2 ENE 28 46 15 25 - - 0.0
08/10:30pm 13.7 6.7 4.0 52 4.5 ENE 30 44 16 24 - - 0.0
08/10:00pm 13.8 6.9 4.4 53 4.4 ENE 30 46 16 25 - - 0.0
08/09:52pm 13.9 7.4 4.5 53 4.4 ENE 28 46 15 25 - - 0.0
08/09:30pm 14.1 7.3 4.9 54 4.4 ENE 30 43 16 23 - - 0.0
08/09:00pm 14.3 7.9 5.4 55 4.3 ENE 28 43 15 23 - - 0.0
08/08:30pm 14.5 8.6 5.6 55 4.3 ENE 26 43 14 23 - - 0.0
08/08:00pm 14.6 8.3 5.9 56 4.2 ENE 28 46 15 25 - - 0.0
08/07:56pm 14.7 8.4 5.8 55 4.3 ENE 28 46 15 25 - - 0.0
08/07:30pm 15.0 9.5 5.8 54 4.5 ENE 24 39 13 21 - - 0.0
08/07:00pm 15.4 10.3 6.2 54 4.5 ENE 22 35 12 19 - - 0.0
08/06:30pm 15.5 10.8 6.0 53 4.7 ENE 20 33 11 18 - - 0.0
08/06:00pm 16.2 11.5 6.1 51 5.0 ENE 20 32 11 17 - - 0.0
08/05:30pm 16.7 11.7 6.5 51 5.1 E 22 35 12 19 - - 0.0
08/05:00pm 17.7 13.3 7.2 50 5.4 ENE 20 39 11 21 - - 0.0
08/04:30pm 18.6 12.5 6.8 46 6.0 ENE 28 44 15 24 - - 0.0
08/04:00pm 19.3 14.4 7.1 45 6.3 ENE 22 39 12 21 - - 0.0
08/03:30pm 19.6 14.6 8.0 47 6.1 ENE 24 46 13 25 - - 0.0
08/03:24pm 19.6 13.7 7.4 45 6.3 ENE 28 46 15 25 - - 0.0
08/03:00pm 20.1 15.2 8.4 47 6.2 ENE 24 39 13 21 - - 0.0
08/02:30pm 20.1 15.6 8.4 47 6.2 ENE 22 41 12 22 - - 0.0
08/02:00pm 20.0 14.9 7.7 45 6.4 ENE 24 46 13 25 - - 0.0
08/01:49pm 19.9 14.2 8.3 47 6.1 E 28 46 15 25 - - 0.0
08/01:30pm 19.7 14.5 8.7 49 5.9 ENE 26 43 14 23 - - 0.0
08/01:00pm 19.3 14.9 8.9 51 5.5 E 22 41 12 22 - - 0.0
08/12:30pm 18.7 14.3 8.9 53 5.2 ENE 22 44 12 24 - - 0.0
08/12:00pm 18.9 14.6 9.4 54 5.1 ENE 22 39 12 21 - - 0.0
08/11:32am 17.9 12.5 9.5 58 4.5 NE 28 50 15 27 - - 0.0
08/11:30am 17.8 12.8 9.7 59 4.4 ENE 26 46 14 25 - - 0.0
08/11:00am 17.3 11.9 9.5 60 4.2 NE 28 52 15 28 - - 0.0
08/10:41am 16.4 10.9 9.1 62 3.8 NE 28 48 15 26 - - 0.0
08/10:30am 17.2 12.6 9.6 61 4.1 NE 24 54 13 29 - - 0.0
08/10:00am 16.0 10.0 8.7 62 3.8 NE 30 54 16 29 - - 0.0
08/09:37am 15.4 9.8 8.6 64 3.5 NE 28 46 15 25 - - 0.0
08/09:30am 15.2 10.0 8.9 66 3.3 NE 26 46 14 25 - - 0.0
08/09:00am 14.0 9.2 9.0 72 2.6 ENE 24 44 13 24 - - 0.0
08/08:30am 12.3 7.8 8.4 77 2.0 ENE 22 41 12 22 - - 0.0
08/08:00am 11.0 6.0 7.9 81 1.5 ENE 24 35 13 19 - - 0.0
08/07:30am 10.2 5.4 7.4 83 1.4 ENE 22 35 12 19 - - 0.0
08/07:00am 10.0 5.5 7.1 82 1.4 ENE 20 33 11 18 - - 0.0
08/06:30am 10.1 5.6 6.8 80 1.6 ENE 20 32 11 17 - - 0.0
08/06:00am 10.4 5.8 6.7 78 1.8 ENE 20 35 11 19 - - 0.0
08/05:30am 10.6 4.9 6.6 76 1.9 ENE 26 35 14 19 - - 0.0
08/05:00am 10.8 5.8 6.6 75 2.0 ENE 22 35 12 19 - - 0.0
08/04:30am 11.2 5.8 6.5 73 2.3 ENE 24 41 13 22 - - 0.0
08/04:00am 11.8 6.1 6.7 71 2.5 ENE 26 41 14 22 - - 0.0
08/03:30am 11.9 6.6 6.8 71 2.5 ENE 24 41 13 22 - - 0.0
08/03:00am 12.3 7.4 6.8 69 2.7 ENE 22 39 12 21 - - 0.0
08/02:30am 12.0 6.7 6.9 71 2.5 ENE 24 43 13 23 - - 0.0
08/02:00am 12.3 7.0 6.8 69 2.7 ENE 24 39 13 21 - - 0.0
08/01:30am 12.4 6.7 6.9 69 2.7 ENE 26 46 14 25 - - 0.0
08/01:00am 12.9 6.9 6.9 67 3.0 ENE 28 54 15 29 - - 0.0
08/12:50am 12.9 6.8 6.7 66 3.0 ENE 28 48 15 26 - - 0.0
08/12:30am 13.1 7.8 6.9 66 3.1 ENE 24 44 13 24 - - 0.0
08/12:00am 13.2 8.3 6.8 65 3.1 ENE 22 48 12 26 - - 0.0
 
Date/Time
WST
Temp
°C
App
Temp
°C
Dew
Point
°C
Rel
Hum
%
Delta-T
°C
Wind Press
QNH
hPa
Press
MSL
hPa
Rain since
9am
mm
Dir  Spd
km/h
Gust
km/h
Spd
kts
Gust
kts
07/11:30pm 13.2 7.8 6.5 64 3.3 E 24 43 13 23 - - 0.0
07/11:11pm 13.6 7.5 6.5 62 3.5 ENE 28 50 15 27 - - 0.0
07/11:00pm 13.6 7.9 6.5 62 3.5 E 26 43 14 23 - - 0.0
07/10:34pm 13.8 7.6 6.2 60 3.7 E 28 52 15 28 - - 0.0
07/10:30pm 13.9 8.5 6.3 60 3.7 E 24 52 13 28 - - 0.0
07/10:00pm 14.4 7.5 6.3 58 4.0 E 32 54 17 29 - - 0.0
07/09:30pm 14.5 7.8 5.8 56 4.2 E 30 48 16 26 - - 0.0
07/09:00pm 14.6 8.3 5.7 55 4.3 E 28 50 15 27 - - 0.0
07/08:58pm 14.8 8.5 5.6 54 4.5 E 28 50 15 27 - - 0.0
07/08:30pm 15.2 10.0 5.7 53 4.6 E 22 35 12 19 - - 0.0
07/08:00pm 15.3 9.7 5.5 52 4.8 E 24 41 13 22 - - 0.0
07/07:30pm 15.6 10.0 5.5 51 4.9 E 24 41 13 22 - - 0.0
07/07:00pm 15.4 10.2 5.6 52 4.8 E 22 43 12 23 - - 0.0
07/06:30pm 15.6 10.5 5.8 52 4.8 E 22 39 12 21 - - 0.0

Latest Capital City Observations: Canberra | Sydney | Melbourne | Brisbane | Adelaide | Perth | Hobart | Darwin

Other formats

Comma delimited format used in spreadsheet applications
http://www.bom.gov.au/fwo/IDW60901/IDW60901.95610.axf

JavaScript Object Notation format (JSON) in row-major order
http://www.bom.gov.au/fwo/IDW60901/IDW60901.95610.json

Data quality

Most of these data are generated automatically and are frequently updated. Quality checks on data are not normally performed. It is possible for incorrect values to appear. Refer to information at About Latest Weather Observations and please check the disclaimer before using these data.